createdAt,value
2019-04-10T00:00:44.184Z,81.31
2019-04-10T00:03:24.161Z,81.52
2019-04-10T00:05:41.118Z,81.35
2019-04-10T00:08:08.472Z,81.56
2019-04-10T00:10:36.196Z,81.72
2019-04-10T00:13:04.439Z,82.13
2019-04-10T00:15:32.657Z,82.34
2019-04-10T00:17:59.935Z,82.54
2019-04-10T00:20:27.018Z,82.61
2019-04-10T00:22:54.830Z,82.90
2019-04-10T00:25:21.992Z,83.16
2019-04-10T00:27:49.080Z,83.36
2019-04-10T00:30:16.645Z,83.71
2019-04-10T00:32:43.961Z,83.75
2019-04-10T00:35:11.125Z,83.85
2019-04-10T00:37:38.245Z,84.01
2019-04-10T00:40:06.815Z,84.36
2019-04-10T00:42:34.880Z,84.34
2019-04-10T00:45:02.224Z,84.40
2019-04-10T00:47:29.293Z,84.52
2019-04-10T00:49:56.367Z,84.58
2019-04-10T00:52:24.092Z,84.76
2019-04-10T00:54:53.224Z,84.86
2019-04-10T00:57:21.294Z,85.00
2019-04-10T00:59:48.518Z,85.04
2019-04-10T01:02:16.466Z,85.09
2019-04-10T01:04:44.639Z,85.27
2019-04-10T01:07:36.593Z,85.37
2019-04-10T01:09:59.353Z,85.39
2019-04-10T01:12:26.490Z,85.44
2019-04-10T01:14:54.042Z,85.36
2019-04-10T01:17:22.186Z,85.41
2019-04-10T01:19:50.279Z,85.40
2019-04-10T01:22:17.452Z,85.52
2019-04-10T01:24:45.988Z,85.55
2019-04-10T01:27:13.926Z,85.60
2019-04-10T01:29:41.893Z,85.77
2019-04-10T01:32:09.770Z,85.57
2019-04-10T01:34:37.863Z,85.53
2019-04-10T01:37:05.101Z,85.62
2019-04-10T01:39:32.730Z,85.78
2019-04-10T01:42:00.597Z,85.75
2019-04-10T01:44:28.903Z,85.84
2019-04-10T01:46:56.972Z,85.82
2019-04-10T01:49:24.179Z,85.81
2019-04-10T01:51:51.872Z,85.93
2019-04-10T01:54:19.382Z,85.96
2019-04-10T01:56:46.531Z,86.00
2019-04-10T01:59:14.704Z,86.05
2019-04-10T02:01:49.001Z,85.96
2019-04-10T02:04:16.351Z,86.00
2019-04-10T02:06:43.506Z,86.18
2019-04-10T02:09:10.981Z,86.20
2019-04-10T02:11:38.190Z,86.33
2019-04-10T02:14:05.732Z,86.62
2019-04-10T02:16:33.058Z,86.63
2019-04-10T02:19:00.140Z,86.83
2019-04-10T02:21:27.534Z,86.77
2019-04-10T02:23:54.713Z,86.79
2019-04-10T02:26:21.781Z,86.78
2019-04-10T02:28:48.879Z,86.98
2019-04-10T02:31:16.068Z,87.03
2019-04-10T02:33:43.151Z,87.09
2019-04-10T02:36:10.867Z,87.27
2019-04-10T02:38:53.233Z,87.28
2019-04-10T02:41:08.367Z,87.32
2019-04-10T02:43:36.563Z,87.64
2019-04-10T02:46:06.560Z,87.78
2019-04-10T02:48:34.044Z,87.84
2019-04-10T02:51:01.962Z,87.86
2019-04-10T02:53:29.628Z,87.77
2019-04-10T02:55:58.228Z,87.87
2019-04-10T02:58:26.528Z,88.16
2019-04-10T03:00:54.854Z,88.34
2019-04-10T03:03:22.608Z,88.49
2019-04-10T03:05:54.306Z,88.61
2019-04-10T03:08:38.282Z,88.75
2019-04-10T03:10:56.792Z,88.73
2019-04-10T03:13:19.828Z,88.79
2019-04-10T03:15:47.649Z,88.89
2019-04-10T03:18:14.900Z,88.95
2019-04-10T03:20:42.743Z,89.07
2019-04-10T03:23:11.443Z,89.16
2019-04-10T03:26:09.729Z,89.16
2019-04-10T03:28:36.912Z,89.22
2019-04-10T03:31:10.641Z,89.42
2019-04-10T03:33:55.266Z,89.52
2019-04-10T03:36:21.253Z,89.67
2019-04-10T03:38:57.755Z,89.82
2019-04-10T03:41:17.777Z,90.12
2019-04-10T03:43:45.821Z,90.10
2019-04-10T03:46:13.091Z,90.29
2019-04-10T03:48:41.034Z,90.26
2019-04-10T03:51:08.281Z,90.51
2019-04-10T03:53:35.392Z,90.63
2019-04-10T03:56:02.574Z,90.59
2019-04-10T03:58:29.615Z,90.59
2019-04-10T04:00:56.664Z,90.81
2019-04-10T04:03:24.595Z,90.98
2019-04-10T04:05:53.128Z,91.02
2019-04-10T04:08:21.451Z,91.16
2019-04-10T04:10:49.360Z,91.42
2019-04-10T04:13:17.471Z,91.29
2019-04-10T04:15:44.668Z,91.57
2019-04-10T04:18:12.916Z,91.39
2019-04-10T04:20:41.203Z,91.58
2019-04-10T04:23:09.598Z,91.79
2019-04-10T04:25:36.835Z,92.03
2019-04-10T04:28:04.624Z,92.09
2019-04-10T04:30:32.101Z,92.25
2019-04-10T04:32:59.246Z,92.37
2019-04-10T04:35:26.302Z,92.56
2019-04-10T04:37:54.882Z,92.67
2019-04-10T04:40:23.781Z,92.88
2019-04-10T04:43:00.175Z,93.04
2019-04-10T04:45:27.811Z,93.12
2019-04-10T04:47:55.602Z,93.18
2019-04-10T04:50:22.868Z,93.36
2019-04-10T04:52:49.934Z,93.46
2019-04-10T04:55:17.652Z,93.61
2019-04-10T04:57:45.087Z,93.91
2019-04-10T05:00:13.182Z,93.98
2019-04-10T05:02:40.431Z,94.02
2019-04-10T05:05:08.665Z,94.21
2019-04-10T05:07:35.888Z,94.32
2019-04-10T05:10:04.754Z,94.32
2019-04-10T05:12:31.915Z,94.21
2019-04-10T05:14:59.044Z,94.38
2019-04-10T05:17:28.780Z,94.41
2019-04-10T05:19:56.130Z,94.35
2019-04-10T05:22:24.379Z,94.31
2019-04-10T05:24:52.316Z,94.23
2019-04-10T05:27:19.484Z,94.26
2019-04-10T05:29:47.145Z,94.10
2019-04-10T05:32:14.502Z,94.11
2019-04-10T05:34:43.204Z,93.72
2019-04-10T05:37:11.419Z,93.82
2019-04-10T05:39:43.341Z,93.50
2019-04-10T05:42:08.476Z,93.28
2019-04-10T05:44:36.045Z,93.11
2019-04-10T05:47:03.399Z,92.75
2019-04-10T05:49:31.060Z,92.63
2019-04-10T05:51:58.213Z,92.55
2019-04-10T05:54:25.281Z,92.20
2019-04-10T05:56:52.622Z,91.98
2019-04-10T05:59:19.806Z,91.72
2019-04-10T06:01:46.870Z,91.12
2019-04-10T06:04:14.072Z,90.77
2019-04-10T06:06:41.359Z,90.40
2019-04-10T06:09:09.149Z,90.24
2019-04-10T06:11:37.348Z,89.56
2019-04-10T06:14:05.274Z,89.05
2019-04-10T06:16:32.521Z,88.66
2019-04-10T06:18:59.836Z,88.28
2019-04-10T06:21:27.292Z,87.55
2019-04-10T06:23:56.683Z,87.19
2019-04-10T06:26:23.937Z,86.47
2019-04-10T06:28:51.029Z,85.68
2019-04-10T06:31:18.684Z,85.70
2019-04-10T06:33:46.440Z,85.31
2019-04-10T06:36:13.605Z,84.90
2019-04-10T06:38:41.212Z,84.63
2019-04-10T06:41:08.415Z,84.28
2019-04-10T06:43:35.529Z,83.74
2019-04-10T06:46:02.558Z,83.42
2019-04-10T06:48:29.690Z,83.48
2019-04-10T06:50:56.764Z,82.99
2019-04-10T06:53:24.755Z,82.30
2019-04-10T06:55:52.386Z,81.96
2019-04-10T06:58:20.110Z,81.23
2019-04-10T07:00:52.181Z,81.28
2019-04-10T07:03:16.932Z,81.29
2019-04-10T07:05:59.688Z,80.90
2019-04-10T07:08:17.295Z,80.76
2019-04-10T07:10:52.110Z,80.05
2019-04-10T07:13:13.077Z,79.84
2019-04-10T07:15:43.628Z,79.52
2019-04-10T07:18:14.441Z,79.65
2019-04-10T07:20:39.959Z,79.62
2019-04-10T07:23:07.144Z,79.37
2019-04-10T07:25:35.360Z,79.10
2019-04-10T07:28:05.036Z,78.81
2019-04-10T07:30:31.877Z,78.38
2019-04-10T07:32:59.329Z,77.75
2019-04-10T07:35:30.765Z,77.85
2019-04-10T07:37:57.791Z,77.71
2019-04-10T07:40:24.980Z,77.81
2019-04-10T07:42:52.547Z,77.71
2019-04-10T07:45:19.722Z,77.42
2019-04-10T07:47:46.850Z,76.40
2019-04-10T07:50:14.369Z,76.67
2019-04-10T07:52:41.533Z,76.60
2019-04-10T07:55:08.745Z,76.34
2019-04-10T07:57:36.387Z,75.54
2019-04-10T08:00:04.076Z,75.59
2019-04-10T08:02:31.821Z,75.74
2019-04-10T08:04:59.812Z,75.93
2019-04-10T08:07:32.751Z,76.15
2019-04-10T08:09:56.471Z,75.34
2019-04-10T08:12:23.540Z,75.24
2019-04-10T08:14:50.687Z,75.32
2019-04-10T08:17:17.771Z,75.19
2019-04-10T08:19:45.332Z,75.69
2019-04-10T08:22:12.864Z,74.91
2019-04-10T08:24:40.535Z,74.64
2019-04-10T08:27:07.752Z,75.14
2019-04-10T08:29:34.816Z,74.96
2019-04-10T08:32:01.910Z,74.64
2019-04-10T08:34:31.446Z,74.63
2019-04-10T08:36:59.684Z,74.02
2019-04-10T08:39:35.973Z,73.24
2019-04-10T08:41:55.896Z,73.30
2019-04-10T08:44:24.217Z,73.63
2019-04-10T08:46:52.541Z,72.70
2019-04-10T08:49:21.231Z,72.88
2019-04-10T08:51:48.542Z,71.99
2019-04-10T08:54:16.201Z,72.23
2019-04-10T08:56:43.393Z,71.96
2019-04-10T08:59:10.476Z,72.57
2019-04-10T09:01:39.700Z,72.49
2019-04-10T09:04:07.766Z,71.80
2019-04-10T09:06:35.599Z,71.94
2019-04-10T09:09:05.464Z,72.00
2019-04-10T09:11:33.943Z,71.52
2019-04-10T09:14:01.156Z,70.83
2019-04-10T09:16:28.847Z,70.77
2019-04-10T09:18:56.066Z,70.96
2019-04-10T09:21:23.693Z,71.30
2019-04-10T09:23:53.338Z,71.49
2019-04-10T09:26:20.340Z,71.12
2019-04-10T09:28:48.594Z,71.45
2019-04-10T09:31:16.115Z,71.66
2019-04-10T09:33:43.303Z,70.52
2019-04-10T09:36:11.191Z,70.92
2019-04-10T09:38:38.936Z,71.04
2019-04-10T09:41:06.197Z,71.09
2019-04-10T09:43:33.876Z,72.00
2019-04-10T09:46:02.181Z,71.47
2019-04-10T09:48:29.631Z,70.57
2019-04-10T09:50:56.790Z,70.58
2019-04-10T09:53:24.562Z,70.06
2019-04-10T09:55:52.454Z,70.06
2019-04-10T09:58:19.896Z,69.68
2019-04-10T10:00:48.199Z,69.95
2019-04-10T10:03:15.526Z,70.04
2019-04-10T10:05:42.580Z,70.06
2019-04-10T10:08:10.577Z,69.14
2019-04-10T10:10:38.838Z,67.79
2019-04-10T10:13:07.491Z,67.19
2019-04-10T10:15:35.586Z,67.93
2019-04-10T10:18:05.474Z,67.80
2019-04-10T10:20:32.616Z,67.94
2019-04-10T10:22:59.713Z,67.88
2019-04-10T10:25:27.036Z,67.58
2019-04-10T10:27:54.456Z,67.62
2019-04-10T10:30:21.720Z,66.99
2019-04-10T10:32:48.974Z,67.13
2019-04-10T10:35:16.764Z,67.72
2019-04-10T10:37:43.999Z,67.17
2019-04-10T10:40:11.819Z,64.84
2019-04-10T10:42:41.511Z,64.35
2019-04-10T10:45:10.467Z,64.28
2019-04-10T10:47:38.368Z,63.41
2019-04-10T10:50:06.658Z,63.25
2019-04-10T10:52:33.873Z,64.17
2019-04-10T10:55:01.123Z,64.30
2019-04-10T10:57:28.214Z,62.89
2019-04-10T10:59:55.285Z,62.37
2019-04-10T11:02:22.373Z,61.12
2019-04-10T11:04:49.625Z,60.96
2019-04-10T11:07:16.823Z,61.34
2019-04-10T11:09:44.447Z,60.78
2019-04-10T11:12:12.234Z,60.78
2019-04-10T11:14:39.618Z,60.26
2019-04-10T11:17:06.859Z,59.65
2019-04-10T11:19:35.499Z,58.79
2019-04-10T11:22:05.017Z,58.26
2019-04-10T11:24:33.254Z,58.60
2019-04-10T11:27:00.496Z,59.29
2019-04-10T11:29:28.751Z,59.23
2019-04-10T11:31:56.141Z,58.62
2019-04-10T11:34:24.231Z,58.73
2019-04-10T11:37:12.931Z,58.35
2019-04-10T11:39:25.543Z,58.34
2019-04-10T11:41:50.435Z,57.92
2019-04-10T11:44:20.282Z,57.42
2019-04-10T11:46:46.696Z,56.43
2019-04-10T11:49:15.492Z,55.47
2019-04-10T11:51:45.325Z,55.98
2019-04-10T11:54:14.623Z,55.90
2019-04-10T11:56:42.661Z,56.75
2019-04-10T11:59:12.370Z,55.97
2019-04-10T12:01:39.364Z,55.98
2019-04-10T12:04:10.094Z,55.47
2019-04-10T12:06:37.812Z,55.06
2019-04-10T12:09:45.215Z,54.92
2019-04-10T12:11:42.594Z,54.39
2019-04-10T12:14:09.677Z,53.78
2019-04-10T12:16:36.914Z,54.40
2019-04-10T12:19:04.772Z,52.45
2019-04-10T12:21:31.887Z,52.50
2019-04-10T12:23:59.057Z,53.29
2019-04-10T12:26:26.257Z,52.47
2019-04-10T12:28:53.974Z,52.01
2019-04-10T12:31:21.178Z,49.50
2019-04-10T12:33:48.264Z,48.36
2019-04-10T12:36:15.350Z,47.87
2019-04-10T12:38:43.494Z,47.71
2019-04-10T12:41:12.577Z,48.07
2019-04-10T12:43:39.703Z,46.60
2019-04-10T12:46:06.848Z,44.61
2019-04-10T12:48:34.736Z,44.11
2019-04-10T12:51:01.996Z,44.38
2019-04-10T12:53:29.612Z,43.95
2019-04-10T12:55:57.784Z,41.78
2019-04-10T12:58:24.955Z,41.80
2019-04-10T13:00:52.245Z,40.96
2019-04-10T13:03:19.486Z,40.22
2019-04-10T13:05:46.554Z,40.07
2019-04-10T13:08:21.296Z,39.78
2019-04-10T13:10:43.464Z,40.35
2019-04-10T13:13:11.550Z,40.38
2019-04-10T13:15:39.333Z,39.19
2019-04-10T13:18:06.550Z,39.96
2019-04-10T13:20:33.740Z,39.18
2019-04-10T13:23:00.848Z,39.75
2019-04-10T13:25:28.191Z,39.54
2019-04-10T13:27:55.399Z,38.99
2019-04-10T13:30:22.853Z,38.39
2019-04-10T13:32:50.127Z,37.48
2019-04-10T13:35:17.949Z,38.09
2019-04-10T13:37:46.833Z,38.12
2019-04-10T13:40:15.207Z,37.93
2019-04-10T13:42:42.355Z,37.44
2019-04-10T13:45:09.546Z,37.02
2019-04-10T13:47:38.585Z,38.19
2019-04-10T13:50:06.738Z,38.60
2019-04-10T13:52:36.308Z,37.36
2019-04-10T13:55:05.205Z,36.74
2019-04-10T13:57:32.826Z,37.05
2019-04-10T13:59:59.971Z,37.60
2019-04-10T14:02:37.536Z,37.99
2019-04-10T14:05:07.415Z,38.99
2019-04-10T14:07:35.976Z,36.47
2019-04-10T14:10:06.988Z,37.48
2019-04-10T14:12:37.070Z,37.63
2019-04-10T14:15:04.974Z,37.61
2019-04-10T14:17:33.336Z,38.20
2019-04-10T14:20:00.435Z,38.30
2019-04-10T14:22:27.532Z,37.79
2019-04-10T14:24:55.501Z,39.13
2019-04-10T14:27:24.687Z,38.32
2019-04-10T14:29:51.758Z,38.69
2019-04-10T14:32:33.414Z,38.74
2019-04-10T14:35:01.051Z,38.51
2019-04-10T14:37:29.210Z,39.07
2019-04-10T14:39:57.782Z,39.50
2019-04-10T14:42:25.215Z,39.87
2019-04-10T14:44:53.025Z,39.33
2019-04-10T14:47:20.400Z,40.01
2019-04-10T14:49:53.615Z,40.60
2019-04-10T14:52:21.034Z,39.81
2019-04-10T14:54:48.308Z,39.70
2019-04-10T14:57:16.930Z,39.49
2019-04-10T14:59:44.276Z,39.95
2019-04-10T15:02:12.677Z,39.88
2019-04-10T15:04:39.866Z,39.24
2019-04-10T15:07:08.025Z,40.21
2019-04-10T15:09:35.499Z,40.70
2019-04-10T15:12:02.868Z,40.54
2019-04-10T15:14:32.539Z,41.11
2019-04-10T15:17:04.035Z,40.67
2019-04-10T15:19:28.962Z,40.28
2019-04-10T15:21:56.328Z,40.18
2019-04-10T15:24:23.790Z,40.39
2019-04-10T15:26:51.314Z,40.92
2019-04-10T15:29:18.498Z,40.47
2019-04-10T15:31:45.996Z,39.34
2019-04-10T15:34:14.026Z,39.05
2019-04-10T15:36:43.493Z,39.62
2019-04-10T15:39:10.625Z,39.48
2019-04-10T15:41:37.791Z,40.05
2019-04-10T15:44:05.773Z,40.89
2019-04-10T15:46:33.195Z,41.03
2019-04-10T15:49:00.558Z,40.81
2019-04-10T15:51:27.972Z,40.07
2019-04-10T15:53:55.247Z,38.92
2019-04-10T15:56:22.311Z,38.53
2019-04-10T15:58:49.944Z,38.89
2019-04-10T16:01:19.421Z,39.21
2019-04-10T16:03:47.215Z,39.64
2019-04-10T16:06:52.120Z,39.78
2019-04-10T16:09:21.075Z,40.67
2019-04-10T16:12:14.505Z,40.44
2019-04-10T16:14:41.691Z,40.78
2019-04-10T16:17:31.379Z,41.01
2019-04-10T16:20:18.127Z,40.90
2019-04-10T16:23:10.734Z,40.88
2019-04-10T16:25:40.409Z,40.39
2019-04-10T16:28:08.298Z,41.65
2019-04-10T16:30:36.949Z,42.00
2019-04-10T16:33:04.963Z,41.85
2019-04-10T16:35:35.159Z,40.93
2019-04-10T16:38:02.320Z,41.35
2019-04-10T16:40:29.919Z,41.90
2019-04-10T16:42:57.379Z,41.96
2019-04-10T16:45:24.609Z,41.91
2019-04-10T16:47:52.597Z,41.91
2019-04-10T16:50:19.714Z,42.70
2019-04-10T16:52:47.361Z,42.25
2019-04-10T16:55:15.475Z,42.30
2019-04-10T16:57:49.465Z,42.33
2019-04-10T17:00:18.248Z,43.05
2019-04-10T17:02:46.503Z,43.07
2019-04-10T17:05:16.510Z,43.88
2019-04-10T17:07:43.732Z,44.40
2019-04-10T17:10:18.095Z,45.16
2019-04-10T17:12:40.643Z,45.60
2019-04-10T17:15:10.154Z,46.00
2019-04-10T17:17:38.619Z,46.37
2019-04-10T17:20:07.018Z,46.69
2019-04-10T17:22:42.072Z,47.02
2019-04-10T17:25:04.149Z,47.39
2019-04-10T17:27:31.998Z,47.75
2019-04-10T17:29:59.180Z,48.21
2019-04-10T17:32:26.999Z,48.79
2019-04-10T17:34:54.853Z,49.08
2019-04-10T17:37:23.334Z,49.49
2019-04-10T17:39:51.465Z,49.82
2019-04-10T17:42:19.936Z,50.01
2019-04-10T17:44:47.821Z,49.82
2019-04-10T17:47:15.092Z,49.83
2019-04-10T17:49:43.413Z,49.91
2019-04-10T17:52:10.571Z,50.49
2019-04-10T17:54:38.690Z,49.97
2019-04-10T17:57:12.845Z,50.31
2019-04-10T17:59:40.678Z,50.29
2019-04-10T18:02:11.713Z,50.68
2019-04-10T18:04:40.023Z,51.37
2019-04-10T18:07:07.952Z,51.06
2019-04-10T18:09:36.875Z,51.10
2019-04-10T18:12:05.929Z,50.91
2019-04-10T18:14:36.103Z,50.91
2019-04-10T18:17:02.626Z,50.93
2019-04-10T18:19:30.904Z,50.99
2019-04-10T18:21:58.373Z,50.91
2019-04-10T18:24:26.218Z,50.71
2019-04-10T18:26:54.161Z,50.71
2019-04-10T18:29:23.257Z,50.77
2019-04-10T18:31:50.981Z,51.39
2019-04-10T18:34:19.417Z,51.38
2019-04-10T18:36:48.666Z,51.41
2019-04-10T18:39:18.310Z,51.94
2019-04-10T18:41:46.602Z,52.15
2019-04-10T18:44:13.690Z,52.38
2019-04-10T18:46:41.687Z,52.80
2019-04-10T18:49:09.347Z,53.07
2019-04-10T18:51:36.659Z,52.96
2019-04-10T18:54:03.933Z,53.00
2019-04-10T18:56:31.344Z,53.17
2019-04-10T18:59:05.008Z,53.89
2019-04-10T19:01:40.487Z,54.23
2019-04-10T19:04:30.814Z,54.01
2019-04-10T19:06:59.040Z,54.21
2019-04-10T19:09:30.441Z,54.54
2019-04-10T19:12:02.607Z,54.39
2019-04-10T19:14:30.348Z,54.50
2019-04-10T19:16:58.268Z,54.56
2019-04-10T19:19:26.059Z,54.58
2019-04-10T19:21:55.897Z,54.90
2019-04-10T19:24:25.910Z,55.24
2019-04-10T19:26:53.798Z,55.69
2019-04-10T19:29:21.447Z,55.59
2019-04-10T19:31:52.043Z,55.58
2019-04-10T19:34:19.232Z,56.11
2019-04-10T19:36:48.248Z,56.25
2019-04-10T19:39:16.072Z,56.07
2019-04-10T19:41:44.845Z,56.04
2019-04-10T19:44:31.035Z,56.37
2019-04-10T19:46:58.723Z,56.38
2019-04-10T19:49:25.985Z,56.43
2019-04-10T19:51:53.054Z,56.54
2019-04-10T19:54:20.211Z,56.73
2019-04-10T19:56:47.303Z,57.00
2019-04-10T19:59:22.811Z,57.19
2019-04-10T20:01:50.755Z,57.15
2019-04-10T20:04:18.829Z,57.23
2019-04-10T20:06:48.885Z,57.32
2019-04-10T20:09:17.809Z,57.82
2019-04-10T20:11:50.075Z,58.03
2019-04-10T20:14:34.705Z,58.19
2019-04-10T20:17:02.026Z,58.64
2019-04-10T20:19:29.150Z,58.95
2019-04-10T20:21:56.721Z,59.06
2019-04-10T20:24:24.943Z,59.13
2019-04-10T20:26:52.253Z,59.18
2019-04-10T20:29:19.592Z,59.20
2019-04-10T20:31:50.151Z,59.21
2019-04-10T20:34:19.052Z,59.46
2019-04-10T20:36:47.052Z,59.84
2019-04-10T20:39:27.424Z,60.01
2019-04-10T20:41:58.348Z,60.20
2019-04-10T20:44:24.919Z,60.55
2019-04-10T20:46:52.787Z,60.70
2019-04-10T20:49:20.443Z,60.75
2019-04-10T20:51:50.450Z,60.97
2019-04-10T20:54:17.897Z,61.05
2019-04-10T20:56:45.028Z,61.26
2019-04-10T20:59:12.152Z,61.23
2019-04-10T21:01:39.368Z,61.39
2019-04-10T21:04:07.319Z,61.49
2019-04-10T21:06:34.461Z,61.80
2019-04-10T21:09:21.387Z,61.95
2019-04-10T21:11:59.832Z,62.04
2019-04-10T21:14:17.610Z,62.03
2019-04-10T21:16:45.248Z,62.39
2019-04-10T21:19:14.123Z,62.59
2019-04-10T21:21:43.345Z,62.61
2019-04-10T21:24:27.504Z,62.79
2019-04-10T21:27:32.606Z,63.04
2019-04-10T21:30:31.775Z,63.21
2019-04-10T21:34:01.454Z,63.50
2019-04-10T21:36:28.923Z,63.62
2019-04-10T21:39:12.361Z,64.01
2019-04-10T21:41:41.056Z,64.22
2019-04-10T21:44:13.457Z,64.64
2019-04-10T21:46:41.004Z,66.60
2019-04-10T21:49:08.288Z,66.36
2019-04-10T21:51:35.406Z,66.51
2019-04-10T21:54:02.504Z,66.42
2019-04-10T21:56:30.925Z,66.49
2019-04-10T21:58:59.132Z,66.65
2019-04-10T22:01:26.620Z,66.81
2019-04-10T22:03:54.232Z,67.01
2019-04-10T22:06:41.042Z,67.19
2019-04-10T22:09:37.457Z,67.46
2019-04-10T22:12:23.650Z,67.48
2019-04-10T22:14:43.880Z,67.55
2019-04-10T22:17:11.329Z,67.87
2019-04-10T22:19:39.504Z,68.18
2019-04-10T22:22:06.953Z,68.61
2019-04-10T22:24:34.131Z,68.90
2019-04-10T22:27:01.531Z,69.33
2019-04-10T22:29:28.859Z,69.62
2019-04-10T22:31:55.922Z,69.92
2019-04-10T22:34:34.183Z,70.38
2019-04-10T22:37:02.204Z,70.65
2019-04-10T22:39:31.686Z,70.91
2019-04-10T22:41:59.034Z,70.94
2019-04-10T22:44:34.697Z,71.19
2019-04-10T22:46:55.624Z,71.50
2019-04-10T22:49:22.918Z,71.78
2019-04-10T22:51:50.000Z,72.05
2019-04-10T22:54:17.923Z,72.31
2019-04-10T22:56:45.633Z,72.48
2019-04-10T22:59:13.582Z,72.75
2019-04-10T23:01:40.799Z,73.06
2019-04-10T23:04:08.085Z,73.31
2019-04-10T23:06:35.411Z,73.54
2019-04-10T23:09:04.172Z,73.75
2019-04-10T23:12:09.857Z,73.92
2019-04-10T23:14:38.571Z,74.20
2019-04-10T23:17:05.815Z,74.17
2019-04-10T23:19:32.924Z,74.44
2019-04-10T23:22:01.243Z,74.59
2019-04-10T23:24:29.694Z,74.76
2019-04-10T23:26:57.570Z,74.91
2019-04-10T23:29:24.839Z,75.30
2019-04-10T23:31:52.157Z,75.40
2019-04-10T23:34:19.243Z,75.56
2019-04-10T23:36:46.564Z,75.60
2019-04-10T23:39:14.277Z,75.80
2019-04-10T23:41:42.069Z,75.95
2019-04-10T23:44:09.268Z,76.10
2019-04-10T23:46:36.841Z,76.35
2019-04-10T23:49:04.045Z,76.51
2019-04-10T23:51:31.549Z,76.57
2019-04-10T23:53:58.612Z,76.80
2019-04-10T23:59:59.245Z,77.19
